KFYV

Drake Field Airport

Fayetteville, Arkansas, USA
METAR KFYV 151853Z VRB05KT 6SM BR OVC011 02/01 A2979 RMK AO2 RAE08UPB08E42 SLP092 P0000 T00220006
Observed Flight Rules
Feb-15 @ 18:53 UTC (33 minutes ago) Marginal Visual Flight Rules
Wind Visibility Clouds Conditions
Variable at 5 knots 6 miles
  • Overcast at 1,100' AGL
  • Mist
Temperatures Readings Precipitation
Current 2°C / 36°F
Dewpoint 1°C / 34°F
Humidity 93%
Altimeter 29.79" Hg
Pressure 1009.2 hPa
Elevation 379
Current Rain 0.01
METAR KFYV 151853Z VRB05KT 6SM BR OVC011 02/01 A2979 RMK AO2 RAE08UPB08E42 SLP092 P0000 T00220006
Observed Flight Rules
Feb-15 @ 18:53 UTC
(33 minutes ago)
MVFR
Wind Visibility
Variable at 5 knots 6 miles
Clouds
  • Overcast at 1,100' AGL
Conditions
  • Mist
Temperature Dewpoint
2°C / 36°F 1°C / 34°F
Humidity Altimeter Pressure
93% 29.79" Hg 1009.2 hPa
Current Rain
0.01